Time;durP1;ratioP1;P1;durP2;ratioP2;P2;SDS_P1;SDS_P2;PMS_P1;PMS_P2;Temp;Humidity;BMP_temperature;BMP_pressure;BME280_temperature;BME280_humidity;BME280_pressure;Samples;Min_cycle;Max_cycle;Signal;HPM_P1;HPM_P2
2024/02/25 00:01:02;;;;;;;0.40;0.40;;;;;5.50;99418.00;;;;9983781;29;20257;-78
2024/02/25 00:06:03;;;;;;;3.10;0.80;;;;;5.40;99422.00;;;;9966928;29;20232;-77
2024/02/25 00:11:05;;;;;;;0.60;0.60;;;;;5.40;99429.00;;;;9950409;29;20229;-76
2024/02/25 00:16:06;;;;;;;2.20;0.80;;;;;5.50;99432.00;;;;9986894;29;20325;-78
2024/02/25 00:21:07;;;;;;;0.77;0.40;;;;;5.50;99426.00;;;;9985250;29;20229;-77
2024/02/25 00:26:09;;;;;;;1.23;0.60;;;;;5.50;99423.00;;;;9997946;29;20233;-79
2024/02/25 00:31:11;;;;;;;1.40;0.63;;;;;5.60;99425.00;;;;9971002;29;20389;-79
2024/02/25 00:36:12;;;;;;;1.90;0.83;;;;;5.60;99432.00;;;;9961563;29;20898;-79
2024/02/25 00:41:13;;;;;;;1.07;0.90;;;;;5.60;99429.00;;;;9967380;29;20649;-79
2024/02/25 00:46:14;;;;;;;0.80;0.70;;;;;5.60;99429.00;;;;9968972;29;20257;-78
2024/02/25 00:51:15;;;;;;;0.93;0.80;;;;;5.70;99421.00;;;;9985886;29;20231;-79
2024/02/25 00:56:16;;;;;;;1.17;0.73;;;;;5.70;99423.00;;;;9991347;29;20711;-79
2024/02/25 01:01:17;;;;;;;2.77;0.77;;;;;5.70;99425.00;;;;9993797;29;20248;-79
2024/02/25 01:06:19;;;;;;;0.60;0.60;;;;;5.70;99427.00;;;;9988604;29;20241;-79
2024/02/25 01:11:20;;;;;;;0.80;0.80;;;;;5.70;99429.00;;;;9959212;29;20229;-79
2024/02/25 01:16:21;;;;;;;0.67;0.60;;;;;5.70;99427.00;;;;9982339;29;20239;-79
2024/02/25 01:21:22;;;;;;;1.00;1.00;;;;;5.70;99416.00;;;;9980418;29;20222;-78
2024/02/25 01:26:23;;;;;;;1.33;0.73;;;;;5.70;99415.00;;;;9974081;29;20237;-80
2024/02/25 01:31:24;;;;;;;1.00;0.90;;;;;5.70;99424.00;;;;9987158;29;20236;-79
2024/02/25 01:36:25;;;;;;;1.77;1.03;;;;;5.70;99416.00;;;;9970978;29;20252;-80
2024/02/25 01:41:26;;;;;;;1.17;1.10;;;;;5.60;99419.00;;;;9948107;29;20234;-79
2024/02/25 01:46:28;;;;;;;2.30;1.17;;;;;5.60;99417.00;;;;9969108;29;20264;-79
2024/02/25 01:51:29;;;;;;;1.13;0.70;;;;;5.60;99414.00;;;;9963046;29;20591;-79
2024/02/25 01:56:30;;;;;;;1.43;0.90;;;;;5.60;99410.00;;;;9996610;29;20245;-79
2024/02/25 02:01:37;;;;;;;1.50;1.37;;;;;5.60;99415.00;;;;9960477;29;20366;-83
2024/02/25 02:06:38;;;;;;;2.13;1.23;;;;;5.60;99410.00;;;;9977466;29;20256;-84
2024/02/25 02:11:39;;;;;;;1.33;1.17;;;;;5.70;99415.00;;;;9975763;29;20278;-83
2024/02/25 02:16:40;;;;;;;2.30;1.40;;;;;5.70;99414.00;;;;9950451;29;20258;-84
2024/02/25 02:21:41;;;;;;;2.03;1.37;;;;;5.60;99406.00;;;;9981536;29;20642;-84
2024/02/25 02:26:42;;;;;;;1.60;1.50;;;;;5.50;99401.00;;;;9977139;29;20246;-83
2024/02/25 02:31:44;;;;;;;2.27;1.67;;;;;5.50;99408.00;;;;9992675;29;20314;-84
2024/02/25 02:36:45;;;;;;;2.63;1.90;;;;;5.50;99407.00;;;;9989604;29;20252;-84
2024/02/25 02:41:46;;;;;;;2.10;1.90;;;;;5.60;99405.00;;;;9983715;29;20617;-84
2024/02/25 02:46:47;;;;;;;2.77;2.30;;;;;5.60;99399.00;;;;9977972;29;20233;-84
2024/02/25 02:51:48;;;;;;;2.63;2.30;;;;;5.60;99401.00;;;;9973876;29;20689;-84
2024/02/25 02:56:49;;;;;;;4.50;2.27;;;;;5.60;99401.00;;;;9950564;29;20229;-85
2024/02/25 03:01:51;;;;;;;2.97;2.10;;;;;5.60;99401.00;;;;9985148;29;20229;-84
2024/02/25 03:06:52;;;;;;;4.07;2.10;;;;;5.60;99400.00;;;;9973583;29;20296;-84
2024/02/25 03:11:54;;;;;;;3.87;2.53;;;;;5.60;99393.00;;;;9966609;29;20217;-84
2024/02/25 03:16:55;;;;;;;3.63;2.70;;;;;5.70;99396.00;;;;9968478;29;20240;-84
2024/02/25 03:21:56;;;;;;;3.87;3.07;;;;;5.70;99399.00;;;;9995661;29;20230;-83
2024/02/25 03:26:57;;;;;;;6.03;3.13;;;;;5.60;99392.00;;;;9981525;29;20772;-78
2024/02/25 03:31:58;;;;;;;4.87;3.30;;;;;5.60;99393.00;;;;9949507;29;20237;-78
2024/02/25 03:37:01;;;;;;;7.70;4.10;;;;;5.60;99405.00;;;;9979544;29;20766;-79
2024/02/25 03:42:02;;;;;;;5.47;2.97;;;;;5.60;99411.00;;;;9999504;29;20305;-79
2024/02/25 03:47:04;;;;;;;3.90;3.33;;;;;5.60;99407.00;;;;9995420;29;20301;-78
2024/02/25 03:52:05;;;;;;;3.90;3.50;;;;;5.60;99401.00;;;;9965622;29;20262;-79
2024/02/25 03:57:06;;;;;;;4.23;2.83;;;;;5.50;99414.00;;;;9970777;29;20233;-79
2024/02/25 04:02:07;;;;;;;4.37;3.23;;;;;5.50;99418.00;;;;9982138;29;20228;-79
2024/02/25 04:07:08;;;;;;;5.87;3.27;;;;;5.50;99417.00;;;;9971124;29;20312;-78
2024/02/25 04:12:09;;;;;;;5.03;3.83;;;;;5.40;99425.00;;;;9985155;29;20749;-79
2024/02/25 04:17:11;;;;;;;6.93;4.07;;;;;5.40;99427.00;;;;9968078;29;20218;-78
2024/02/25 04:22:12;;;;;;;7.17;4.40;;;;;5.40;99436.00;;;;10000010;29;20233;-80
2024/02/25 04:27:13;;;;;;;6.40;4.43;;;;;5.40;99433.00;;;;9964953;29;20221;-80
2024/02/25 04:32:14;;;;;;;6.27;3.47;;;;;5.40;99424.00;;;;9988023;29;21002;-80
2024/02/25 04:37:15;;;;;;;6.00;3.57;;;;;5.40;99431.00;;;;9963059;29;20247;-80
2024/02/25 04:42:16;;;;;;;5.63;3.20;;;;;5.40;99434.00;;;;9963887;29;20928;-79
2024/02/25 04:47:17;;;;;;;8.87;4.40;;;;;5.40;99435.00;;;;9980669;29;20285;-80
2024/02/25 04:52:21;;;;;;;6.90;3.67;;;;;5.40;99438.00;;;;9971346;29;20226;-79
2024/02/25 04:57:22;;;;;;;9.00;3.93;;;;;5.40;99434.00;;;;9962567;29;20233;-79
2024/02/25 05:02:24;;;;;;;6.87;3.90;;;;;5.40;99427.00;;;;9978246;29;20226;-79
2024/02/25 05:07:25;;;;;;;6.60;3.97;;;;;5.40;99440.00;;;;9994841;29;20228;-78
2024/02/25 05:12:26;;;;;;;8.00;4.27;;;;;5.40;99437.00;;;;9996560;29;20305;-79
2024/02/25 05:17:27;;;;;;;9.93;4.57;;;;;5.40;99447.00;;;;9963879;29;20363;-78
2024/02/25 05:22:29;;;;;;;11.17;4.70;;;;;5.40;99445.00;;;;9967368;29;20281;-79
2024/02/25 05:27:35;;;;;;;8.33;4.33;;;;;5.40;99444.00;;;;9968991;29;20233;-80
2024/02/25 05:32:37;;;;;;;7.83;4.00;;;;;5.40;99451.00;;;;9964365;29;20884;-79
2024/02/25 05:37:38;;;;;;;6.67;4.30;;;;;5.40;99455.00;;;;9990569;29;20257;-79
2024/02/25 05:42:40;;;;;;;12.57;5.40;;;;;5.40;99451.00;;;;9953275;29;20740;-81
2024/02/25 05:47:42;;;;;;;11.07;5.03;;;;;5.50;99450.00;;;;10000345;29;20217;-81
2024/02/25 05:52:43;;;;;;;9.33;4.93;;;;;5.50;99447.00;;;;9977891;29;20233;-80
2024/02/25 05:57:44;;;;;;;10.37;5.00;;;;;5.50;99456.00;;;;10005457;29;20249;-80
2024/02/25 06:02:46;;;;;;;6.70;4.60;;;;;5.50;99453.00;;;;9980672;29;20308;-81
2024/02/25 06:07:47;;;;;;;8.60;5.07;;;;;5.50;99462.00;;;;9956120;29;20229;-80
2024/02/25 06:12:48;;;;;;;8.27;4.93;;;;;5.60;99468.00;;;;9965997;29;20231;-80
2024/02/25 06:17:50;;;;;;;7.40;4.80;;;;;5.60;99474.00;;;;9996267;29;20254;-80
2024/02/25 06:22:52;;;;;;;8.50;5.03;;;;;5.60;99472.00;;;;9964729;29;20229;-81
2024/02/25 06:27:53;;;;;;;7.40;4.97;;;;;5.60;99479.00;;;;9964132;29;20315;-80
2024/02/25 06:32:54;;;;;;;5.93;4.57;;;;;5.60;99469.00;;;;9970502;29;20238;-80
2024/02/25 06:37:55;;;;;;;11.23;5.13;;;;;5.60;99498.00;;;;9973526;29;20662;-80
2024/02/25 06:42:56;;;;;;;10.23;5.43;;;;;5.60;99501.00;;;;9988586;29;20229;-81
2024/02/25 06:47:57;;;;;;;11.10;4.70;;;;;5.60;99492.00;;;;9983600;29;20233;-81
2024/02/25 06:52:59;;;;;;;5.63;3.83;;;;;5.60;99494.00;;;;9953345;29;20312;-80
2024/02/25 06:58:00;;;;;;;12.00;4.93;;;;;5.60;99493.00;;;;9981434;29;20315;-78
2024/02/25 07:03:01;;;;;;;8.13;4.90;;;;;5.70;99500.00;;;;9952587;29;20233;-77
2024/02/25 07:08:03;;;;;;;5.13;4.20;;;;;5.80;99506.00;;;;9972023;29;20799;-77
2024/02/25 07:13:04;;;;;;;7.33;4.50;;;;;5.80;99509.00;;;;9957120;29;20229;-78
2024/02/25 07:18:05;;;;;;;7.63;4.30;;;;;5.80;99515.00;;;;9969006;29;20257;-77
2024/02/25 07:23:06;;;;;;;7.47;4.73;;;;;6.00;99520.00;;;;9976373;29;20271;-77
2024/02/25 07:28:07;;;;;;;8.00;4.77;;;;;6.30;99513.00;;;;9958665;29;20692;-78
2024/02/25 07:33:09;;;;;;;5.00;4.50;;;;;6.40;99528.00;;;;9963051;29;20225;-78
2024/02/25 07:38:11;;;;;;;8.27;5.10;;;;;6.40;99526.00;;;;9974442;29;20828;-78
2024/02/25 07:43:12;;;;;;;10.77;5.23;;;;;6.40;99526.00;;;;10001175;29;20232;-77
2024/02/25 07:48:13;;;;;;;7.93;5.27;;;;;6.40;99528.00;;;;9972648;29;20260;-78
2024/02/25 07:53:15;;;;;;;7.97;5.87;;;;;6.50;99531.00;;;;9988010;29;20256;-77
2024/02/25 07:58:16;;;;;;;16.67;6.17;;;;;7.00;99527.00;;;;9963282;29;20233;-78
2024/02/25 08:03:17;;;;;;;8.93;5.70;;;;;7.90;99531.00;;;;9993916;29;20286;-78
2024/02/25 08:08:18;;;;;;;8.80;5.13;;;;;7.70;99534.00;;;;9969414;29;20911;-76
2024/02/25 08:13:20;;;;;;;10.33;4.87;;;;;7.10;99547.00;;;;9981949;29;20229;-80
2024/02/25 08:18:21;;;;;;;7.33;4.77;;;;;6.70;99530.00;;;;9967589;29;20876;-77
2024/02/25 08:23:22;;;;;;;7.50;4.10;;;;;6.60;99542.00;;;;9994617;29;20912;-76
2024/02/25 08:28:25;;;;;;;8.43;5.47;;;;;6.60;99529.00;;;;10012261;29;20283;-77
2024/02/25 08:33:26;;;;;;;8.37;5.43;;;;;6.80;99538.00;;;;9981154;29;20225;-78
2024/02/25 08:38:28;;;;;;;12.00;5.10;;;;;7.40;99532.00;;;;9972372;29;20232;-77
2024/02/25 08:43:29;;;;;;;9.60;4.73;;;;;8.00;99551.00;;;;9960832;29;20242;-77
2024/02/25 08:48:30;;;;;;;6.40;3.63;;;;;8.00;99552.00;;;;9986171;29;20221;-77
2024/02/25 08:53:32;;;;;;;8.33;4.30;;;;;7.70;99555.00;;;;9970552;29;20229;-78
2024/02/25 08:58:36;;;;;;;8.17;4.30;;;;;7.80;99554.00;;;;9973843;29;20229;-78
2024/02/25 09:03:37;;;;;;;10.13;4.53;;;;;7.50;99555.00;;;;9993905;29;20642;-77
2024/02/25 09:08:51;;;;;;;6.03;3.30;;;;;7.80;99552.00;;;;9990710;29;20232;-78
2024/02/25 09:13:54;;;;;;;6.50;3.63;;;;;8.50;99549.00;;;;9980780;29;20217;-77
2024/02/25 09:18:55;;;;;;;5.27;3.13;;;;;9.10;99550.00;;;;9944593;29;20268;-78
2024/02/25 09:23:57;;;;;;;4.13;2.40;;;;;8.60;99551.00;;;;9971973;29;20272;-77
2024/02/25 09:28:58;;;;;;;4.53;2.97;;;;;8.30;99542.00;;;;9978210;29;20234;-78
2024/02/25 09:34:00;;;;;;;6.83;2.80;;;;;8.80;99538.00;;;;9981837;29;20257;-77
2024/02/25 09:39:03;;;;;;;12.23;3.20;;;;;9.30;99548.00;;;;9967152;29;20234;-77
2024/02/25 09:44:04;;;;;;;4.93;2.47;;;;;9.60;99538.00;;;;9998279;29;20317;-77
2024/02/25 09:49:06;;;;;;;6.63;2.20;;;;;10.80;99514.00;;;;9992889;29;20977;-77
2024/02/25 09:54:08;;;;;;;4.37;2.10;;;;;11.40;99512.00;;;;9984721;29;20836;-77
2024/02/25 09:59:09;;;;;;;3.43;1.70;;;;;11.70;99517.00;;;;9969442;29;20921;-76
2024/02/25 10:04:10;;;;;;;6.57;1.90;;;;;11.50;99523.00;;;;9992079;29;20324;-78
2024/02/25 10:09:12;;;;;;;2.72;1.42;;;;;11.90;99512.00;;;;9954668;29;20225;-75
2024/02/25 10:14:15;;;;;;;5.78;1.85;;;;;11.90;99517.00;;;;9953128;29;20230;-75
2024/02/25 10:19:17;;;;;;;5.07;1.40;;;;;11.50;99517.00;;;;9968402;29;20250;-74
2024/02/25 10:24:29;;;;;;;3.78;1.67;;;;;11.80;99506.00;;;;9978114;29;20233;-77
2024/02/25 10:29:30;;;;;;;3.60;1.60;;;;;11.20;99508.00;;;;9973648;29;20248;-78
2024/02/25 10:34:34;;;;;;;3.50;1.27;;;;;10.50;99512.00;;;;9994553;29;20253;-78
2024/02/25 10:39:36;;;;;;;4.93;2.00;;;;;10.00;99520.00;;;;9957917;29;20316;-80
2024/02/25 10:44:37;;;;;;;3.10;1.43;;;;;10.20;99509.00;;;;9995417;29;20255;-79
2024/02/25 10:49:39;;;;;;;5.60;1.90;;;;;10.20;99519.00;;;;9983988;29;20294;-77
2024/02/25 10:54:46;;;;;;;6.03;1.67;;;;;10.40;99509.00;;;;9986441;29;20837;-78
2024/02/25 10:59:47;;;;;;;3.00;1.10;;;;;10.50;99505.00;;;;9964634;29;20313;-77
2024/02/25 11:04:49;;;;;;;5.17;1.60;;;;;10.40;99497.00;;;;9987443;29;20233;-77
2024/02/25 11:09:51;;;;;;;5.30;1.40;;;;;10.40;99506.00;;;;9999781;29;20669;-75
2024/02/25 11:15:00;;;;;;;5.23;2.00;;;;;10.50;99492.00;;;;9975390;29;20756;-74
2024/02/25 11:20:04;;;;;;;7.50;1.77;;;;;10.80;99487.00;;;;9979991;29;20230;-77
2024/02/25 11:25:06;;;;;;;5.90;1.70;;;;;11.10;99478.00;;;;9962303;29;20274;-78
2024/02/25 11:30:16;;;;;;;6.30;1.30;;;;;11.20;99469.00;;;;9989430;29;20237;-80
2024/02/25 11:35:24;;;;;;;8.57;1.70;;;;;11.80;99460.00;;;;9993108;29;20692;-81
2024/02/25 11:40:25;;;;;;;6.37;1.70;;;;;12.40;99441.00;;;;9956253;29;20334;-79
2024/02/25 11:45:26;;;;;;;3.57;1.40;;;;;12.60;99431.00;;;;9999870;29;20321;-80
2024/02/25 11:50:27;;;;;;;6.13;1.77;;;;;14.00;99418.00;;;;9997140;29;20247;-79
2024/02/25 11:55:28;;;;;;;7.22;1.55;;;;;13.40;99408.00;;;;9991851;29;20259;-78
2024/02/25 12:00:32;;;;;;;4.13;1.48;;;;;12.60;99408.00;;;;9977267;29;20665;-78
2024/02/25 12:05:34;;;;;;;6.45;1.40;;;;;12.90;99407.00;;;;9973463;29;20226;-79
2024/02/25 12:10:36;;;;;;;5.53;1.95;;;;;12.20;99407.00;;;;9977535;29;20920;-77
2024/02/25 12:15:40;;;;;;;5.88;1.27;;;;;12.10;99403.00;;;;9951894;29;20320;-78
2024/02/25 12:20:41;;;;;;;7.07;1.58;;;;;12.40;99400.00;;;;9953100;29;20567;-78
2024/02/25 12:25:44;;;;;;;3.22;1.40;;;;;12.30;99388.00;;;;9984921;29;21052;-77
2024/02/25 12:30:47;;;;;;;5.07;1.35;;;;;12.30;99384.00;;;;9995798;29;20232;-77
2024/02/25 12:35:49;;;;;;;3.60;1.17;;;;;13.50;99361.00;;;;9953560;29;20816;-77
2024/02/25 12:40:51;;;;;;;5.20;1.02;;;;;12.70;99356.00;;;;9997803;29;20308;-78
2024/02/25 12:57:00;;;;;;;5.87;1.53;;;;;12.10;99353.00;;;;10512354;27;20631;-78
2024/02/25 13:02:02;;;;;;;6.77;1.30;;;;;12.20;99358.00;;;;10466194;28;20249;-78
2024/02/25 13:07:03;;;;;;;3.90;1.05;;;;;12.70;99344.00;;;;10433409;28;20229;-80
2024/02/25 13:12:05;;;;;;;2.50;0.88;;;;;13.50;99337.00;;;;10442307;28;20260;-78
2024/02/25 13:17:08;;;;;;;3.28;0.70;;;;;12.90;99334.00;;;;10471795;28;20221;-79
2024/02/25 13:22:09;;;;;;;2.90;0.85;;;;;12.90;99324.00;;;;10462325;28;20221;-78
2024/02/25 13:27:13;;;;;;;1.52;0.68;;;;;12.20;99320.00;;;;10453394;28;20237;-78
2024/02/25 13:32:17;;;;;;;2.85;0.85;;;;;11.50;99314.00;;;;10429510;28;20460;-79
2024/02/25 13:37:18;;;;;;;3.65;0.88;;;;;11.50;99306.00;;;;10463915;28;20282;-78
2024/02/25 13:42:19;;;;;;;1.80;1.03;;;;;11.90;99305.00;;;;10439423;28;20245;-79
2024/02/25 13:47:20;;;;;;;3.75;0.85;;;;;13.00;99289.00;;;;10449991;28;20218;-78
2024/02/25 13:52:21;;;;;;;3.30;1.08;;;;;13.00;99294.00;;;;10437369;28;21005;-79
2024/02/25 13:57:23;;;;;;;3.55;0.98;;;;;12.60;99287.00;;;;10407732;28;20786;-80
2024/02/25 14:02:24;;;;;;;3.15;1.00;;;;;12.50;99286.00;;;;10447920;28;20656;-80
2024/02/25 14:07:25;;;;;;;8.03;1.37;;;;;12.60;99281.00;;;;10384525;28;20709;-79
2024/02/25 14:12:26;;;;;;;4.10;1.17;;;;;12.80;99266.00;;;;10432962;28;20300;-80
2024/02/25 14:17:27;;;;;;;4.35;1.27;;;;;13.30;99261.00;;;;10426887;28;20588;-80
2024/02/25 14:22:29;;;;;;;2.65;0.80;;;;;13.10;99260.00;;;;10421127;28;20561;-79
2024/02/25 14:27:31;;;;;;;2.33;0.70;;;;;12.90;99241.00;;;;10344512;28;20249;-79
2024/02/25 14:32:32;;;;;;;4.10;1.40;;;;;15.20;99242.00;;;;10410216;28;20744;-79
2024/02/25 14:37:34;;;;;;;4.40;1.10;;;;;12.80;99240.00;;;;10442395;28;20304;-80
2024/02/25 14:42:35;;;;;;;5.22;1.25;;;;;12.30;99228.00;;;;10401781;28;20214;-79
2024/02/25 14:47:36;;;;;;;3.10;0.77;;;;;11.60;99232.00;;;;10406986;28;20245;-79
2024/02/25 14:52:37;;;;;;;2.27;0.73;;;;;11.40;99230.00;;;;10399427;28;20222;-79
2024/02/25 14:57:41;;;;;;;3.23;0.97;;;;;11.20;99220.00;;;;10420865;28;20933;-79
2024/02/25 15:02:43;;;;;;;1.57;1.00;;;;;10.90;99208.00;;;;10408006;28;20813;-81
2024/02/25 15:07:44;;;;;;;2.73;0.90;;;;;11.10;99201.00;;;;10419064;28;20229;-79
2024/02/25 15:12:45;;;;;;;3.07;0.83;;;;;11.10;99196.00;;;;10401648;28;21037;-79
2024/02/25 15:17:46;;;;;;;3.30;0.80;;;;;10.90;99200.00;;;;10419805;28;20226;-78
2024/02/25 15:22:47;;;;;;;3.20;0.83;;;;;10.80;99193.00;;;;10404374;28;20342;-79
2024/02/25 15:27:50;;;;;;;2.20;0.77;;;;;10.80;99194.00;;;;10435446;28;20302;-79
2024/02/25 15:32:51;;;;;;;4.33;1.20;;;;;10.70;99205.00;;;;10427459;28;20581;-79
2024/02/25 15:37:54;;;;;;;3.07;0.90;;;;;10.70;99197.00;;;;10396859;28;20271;-79
2024/02/25 15:42:55;;;;;;;2.33;1.00;;;;;10.50;99199.00;;;;10416936;28;20225;-79
2024/02/25 15:47:57;;;;;;;3.03;0.70;;;;;10.20;99201.00;;;;10419557;28;20244;-79
2024/02/25 15:52:59;;;;;;;4.10;1.13;;;;;10.00;99200.00;;;;10398889;28;20222;-79
2024/02/25 15:58:00;;;;;;;4.33;0.90;;;;;9.90;99206.00;;;;10359426;28;20222;-78
2024/02/25 16:03:03;;;;;;;2.43;1.00;;;;;9.90;99200.00;;;;10399445;28;20226;-79
2024/02/25 16:08:08;;;;;;;3.83;1.20;;;;;9.80;99199.00;;;;10368695;28;20233;-78
2024/02/25 16:13:12;;;;;;;3.80;0.87;;;;;9.60;99192.00;;;;10381148;28;20279;-79
2024/02/25 16:18:13;;;;;;;6.23;1.87;;;;;9.60;99183.00;;;;10447158;28;20229;-79
2024/02/25 16:23:15;;;;;;;3.67;1.10;;;;;9.50;99178.00;;;;10430309;28;20230;-78
2024/02/25 16:28:17;;;;;;;3.37;0.90;;;;;9.50;99179.00;;;;10418131;28;20312;-78
2024/02/25 16:33:18;;;;;;;5.27;1.27;;;;;9.40;99175.00;;;;10385515;28;20221;-79
2024/02/25 16:38:20;;;;;;;1.23;0.60;;;;;9.30;99182.00;;;;10408855;28;20291;-78
2024/02/25 16:43:21;;;;;;;3.13;0.97;;;;;9.30;99194.00;;;;10397264;28;20855;-78
2024/02/25 16:48:23;;;;;;;2.00;0.90;;;;;9.20;99193.00;;;;10410975;28;20845;-79
2024/02/25 16:53:24;;;;;;;4.33;1.10;;;;;9.20;99193.00;;;;10407879;28;20228;-78
2024/02/25 16:58:25;;;;;;;3.90;1.10;;;;;9.10;99196.00;;;;10413307;28;20304;-79
2024/02/25 17:03:26;;;;;;;4.33;1.10;;;;;9.10;99196.00;;;;10386278;28;20246;-78
2024/02/25 17:08:27;;;;;;;3.50;1.10;;;;;9.00;99191.00;;;;10396862;28;20272;-78
2024/02/25 17:13:29;;;;;;;2.60;1.10;;;;;8.90;99185.00;;;;10394634;28;20234;-78
2024/02/25 17:18:31;;;;;;;3.13;1.00;;;;;8.80;99176.00;;;;10386536;28;20254;-79
2024/02/25 17:23:32;;;;;;;5.73;1.30;;;;;8.60;99169.00;;;;10400495;28;20225;-78
2024/02/25 17:28:33;;;;;;;4.77;1.70;;;;;8.50;99172.00;;;;10402051;28;20275;-79
2024/02/25 17:33:34;;;;;;;4.07;1.50;;;;;8.40;99160.00;;;;10398296;28;20706;-79
2024/02/25 17:38:36;;;;;;;4.40;2.10;;;;;8.40;99175.00;;;;10421566;28;20711;-80
2024/02/25 17:43:37;;;;;;;5.47;2.20;;;;;8.40;99169.00;;;;10416154;28;20217;-79
2024/02/25 17:48:38;;;;;;;4.03;1.97;;;;;8.40;99174.00;;;;10403224;28;20210;-79
2024/02/25 17:53:39;;;;;;;2.70;1.30;;;;;8.40;99174.00;;;;10385578;28;20573;-79
2024/02/25 17:58:47;;;;;;;5.17;1.60;;;;;8.40;99164.00;;;;10409673;28;20209;-80
2024/02/25 18:03:48;;;;;;;4.53;1.30;;;;;8.40;99157.00;;;;10391620;28;20289;-80
2024/02/25 18:08:50;;;;;;;3.83;1.30;;;;;8.40;99152.00;;;;10364451;28;20222;-79
2024/02/25 18:13:51;;;;;;;3.10;1.00;;;;;8.40;99159.00;;;;10364153;28;20236;-80
2024/02/25 18:18:52;;;;;;;3.33;1.40;;;;;8.40;99153.00;;;;10395101;28;20322;-79
2024/02/25 18:23:54;;;;;;;5.10;1.40;;;;;8.40;99147.00;;;;10397901;28;21119;-79
2024/02/25 18:28:56;;;;;;;3.63;1.43;;;;;8.40;99145.00;;;;10402126;28;20225;-80
2024/02/25 18:33:57;;;;;;;3.10;1.50;;;;;8.40;99141.00;;;;10379061;28;20217;-79
2024/02/25 18:38:59;;;;;;;5.10;1.40;;;;;8.40;99143.00;;;;10403737;28;20357;-79
2024/02/25 18:44:00;;;;;;;3.13;1.50;;;;;8.40;99137.00;;;;10433779;28;20621;-78
2024/02/25 18:49:02;;;;;;;2.20;1.27;;;;;8.40;99131.00;;;;10418629;28;20583;-77
2024/02/25 18:54:04;;;;;;;4.50;1.60;;;;;8.40;99123.00;;;;10370571;28;20227;-78
2024/02/25 18:59:05;;;;;;;7.30;1.87;;;;;8.30;99111.00;;;;10373170;28;20227;-78
2024/02/25 19:04:06;;;;;;;4.00;1.40;;;;;8.30;99099.00;;;;10365256;28;20215;-78
2024/02/25 19:09:08;;;;;;;3.67;1.53;;;;;8.20;99095.00;;;;10419753;28;20222;-78
2024/02/25 19:14:21;;;;;;;6.93;1.87;;;;;8.20;99089.00;;;;10401540;28;21592;-79
2024/02/25 19:19:22;;;;;;;2.57;1.40;;;;;8.20;99083.00;;;;10397776;28;20225;-78
2024/02/25 19:24:23;;;;;;;3.37;1.30;;;;;8.10;99071.00;;;;10413491;28;20230;-77
2024/02/25 19:29:24;;;;;;;8.30;1.37;;;;;8.10;99068.00;;;;10396804;28;20895;-78
2024/02/25 19:34:27;;;;;;;3.37;1.60;;;;;8.10;99062.00;;;;10437618;28;20836;-78
2024/02/25 19:39:32;;;;;;;2.97;1.20;;;;;8.10;99066.00;;;;10415684;28;20737;-78
2024/02/25 19:44:33;;;;;;;4.50;1.20;;;;;8.00;99052.00;;;;10408132;28;20297;-77
2024/02/25 19:49:34;;;;;;;4.03;1.13;;;;;8.10;99049.00;;;;10394106;28;20661;-80
2024/02/25 19:54:35;;;;;;;3.60;1.40;;;;;8.10;99044.00;;;;10386080;28;20360;-80
2024/02/25 19:59:37;;;;;;;3.03;1.53;;;;;8.10;99041.00;;;;10395018;28;20289;-79
2024/02/25 20:04:38;;;;;;;7.37;1.80;;;;;8.10;99040.00;;;;10380829;28;20859;-80
2024/02/25 20:09:39;;;;;;;1.53;1.10;;;;;8.10;99037.00;;;;10392806;28;20265;-80
2024/02/25 20:14:41;;;;;;;2.43;1.10;;;;;8.10;99032.00;;;;10405785;28;20253;-79
2024/02/25 20:19:42;;;;;;;1.57;0.97;;;;;8.10;99025.00;;;;10410423;28;20214;-80
2024/02/25 20:24:44;;;;;;;3.43;1.10;;;;;8.10;99017.00;;;;10416379;28;20226;-80
2024/02/25 20:29:45;;;;;;;3.57;1.00;;;;;8.10;99017.00;;;;10412938;28;20227;-80
2024/02/25 20:34:46;;;;;;;2.40;1.20;;;;;8.10;99013.00;;;;10449657;28;20217;-79
2024/02/25 20:39:49;;;;;;;2.97;1.20;;;;;8.00;99005.00;;;;10412964;28;20226;-80
2024/02/25 20:44:50;;;;;;;1.63;1.03;;;;;8.00;99010.00;;;;10397968;28;20816;-79
2024/02/25 20:49:51;;;;;;;2.63;1.20;;;;;7.90;99013.00;;;;10378298;28;20844;-80
2024/02/25 20:54:54;;;;;;;2.87;1.40;;;;;7.90;99017.00;;;;10401303;28;20622;-79
2024/02/25 20:59:59;;;;;;;2.20;1.60;;;;;7.80;99011.00;;;;10413392;28;20957;-76
2024/02/25 21:05:03;;;;;;;3.50;1.13;;;;;7.80;99006.00;;;;10413421;28;20226;-77
2024/02/25 21:10:05;;;;;;;3.60;1.60;;;;;7.80;99013.00;;;;10414712;28;20221;-77
2024/02/25 21:15:06;;;;;;;3.13;1.57;;;;;7.70;98994.00;;;;10424011;28;20838;-76
2024/02/25 21:20:09;;;;;;;3.13;1.40;;;;;7.70;99001.00;;;;10407720;28;20286;-76
2024/02/25 21:25:12;;;;;;;4.73;1.43;;;;;7.60;99002.00;;;;10412503;28;20278;-76
2024/02/25 21:30:14;;;;;;;3.00;1.50;;;;;7.60;98996.00;;;;10421298;28;20239;-78
2024/02/25 21:35:15;;;;;;;2.67;1.57;;;;;7.50;98989.00;;;;10412626;28;20226;-77
2024/02/25 21:40:16;;;;;;;4.80;1.63;;;;;7.50;98995.00;;;;10398690;28;20225;-75
2024/02/25 21:45:17;;;;;;;2.47;1.43;;;;;7.50;98995.00;;;;10437596;28;20269;-75
2024/02/25 21:50:19;;;;;;;2.43;1.37;;;;;7.50;98998.00;;;;10417546;28;20225;-76
2024/02/25 21:55:21;;;;;;;1.27;0.97;;;;;7.50;98996.00;;;;10417855;28;20256;-77
2024/02/25 22:00:22;;;;;;;2.83;1.67;;;;;7.40;98998.00;;;;10414334;28;20233;-78
2024/02/25 22:05:23;;;;;;;2.27;1.40;;;;;7.40;98996.00;;;;10421565;28;20272;-77
2024/02/25 22:10:24;;;;;;;2.43;1.20;;;;;7.40;98988.00;;;;10404098;28;20267;-77
2024/02/25 22:15:25;;;;;;;2.27;1.33;;;;;7.40;98990.00;;;;10420855;28;20226;-76
2024/02/25 22:20:26;;;;;;;3.93;1.07;;;;;7.50;98990.00;;;;10404446;28;20222;-77
2024/02/25 22:25:30;;;;;;;4.57;1.57;;;;;7.50;98990.00;;;;10399005;28;20534;-76
2024/02/25 22:30:31;;;;;;;1.80;1.40;;;;;7.40;98990.00;;;;10413638;28;20352;-76
2024/02/25 22:35:32;;;;;;;2.60;1.30;;;;;7.40;99003.00;;;;10417697;28;20221;-76
2024/02/25 22:40:33;;;;;;;2.40;1.53;;;;;7.30;99007.00;;;;10400136;28;20247;-76
2024/02/25 22:45:34;;;;;;;2.97;1.37;;;;;7.20;99015.00;;;;10408015;28;20248;-77
2024/02/25 22:50:36;;;;;;;2.03;1.23;;;;;7.10;99016.00;;;;10399466;28;20221;-77
2024/02/25 22:55:37;;;;;;;3.47;1.60;;;;;7.00;99019.00;;;;10400153;28;20229;-76
2024/02/25 23:00:39;;;;;;;4.67;1.70;;;;;6.90;99022.00;;;;10405810;28;20720;-77
2024/02/25 23:05:40;;;;;;;3.47;1.60;;;;;6.80;99029.00;;;;10371525;28;20313;-77
2024/02/25 23:10:42;;;;;;;2.33;1.47;;;;;6.70;99023.00;;;;10364831;28;20222;-76
2024/02/25 23:15:43;;;;;;;1.93;1.50;;;;;6.70;99027.00;;;;10382602;28;20233;-81
2024/02/25 23:20:44;;;;;;;1.83;1.27;;;;;6.60;99032.00;;;;10409337;28;20301;-80
2024/02/25 23:25:45;;;;;;;2.53;1.60;;;;;6.50;99030.00;;;;10436252;28;20275;-80
2024/02/25 23:30:46;;;;;;;2.77;1.63;;;;;6.50;99032.00;;;;10387999;28;20294;-80
2024/02/25 23:35:47;;;;;;;2.43;1.47;;;;;6.50;99015.00;;;;10428049;28;20263;-81
2024/02/25 23:40:49;;;;;;;2.00;1.60;;;;;6.40;99008.00;;;;10371765;28;20216;-81
2024/02/25 23:45:50;;;;;;;2.60;1.70;;;;;6.40;99017.00;;;;10363544;28;20229;-80
2024/02/25 23:50:51;;;;;;;1.97;1.33;;;;;6.40;99002.00;;;;10384055;28;20872;-81
2024/02/25 23:55:52;;;;;;;2.83;1.50;;;;;6.30;98996.00;;;;10387632;28;20238;-80
